Aviation Digital Data Service (ADDS)

Output produced by METARs form (0532 UTC 19 March 2019)
found at http://www.aviationweather.gov/metar/data/
 
Forecast for: CYYJ (VICTORIA INTL AR, BC, CA)
Text: TAF CYYJ 182338Z 1900/1924 VRB03KT P6SM FEW240
Forecast period: 0000 to 0400 UTC 19 March 2019
Forecast type: FROM: standard forecast or significant change
Winds: variable direction winds at 3 MPH (3 knots; 1.5 m/s)
Visibility: 6 or more miles 10+ km)
Ceiling: at least 12,000 feet AGL
Clouds: few clouds at 24000 feet AGL
Weather: no significant weather forecast for this period
Text: BECMG 1904/1906 29008KT
Forecast period: 0400 to 1700 UTC 19 March 2019
Forecast type: BECOMING: Conditions expected to become as follows by 0600 UTC 19 March 2019
Winds: from the WNW (290 degrees) at 9 MPH (8 knots; 4.1 m/s)
Visibility: 6 or more miles 10+ km)
Ceiling: at least 12,000 feet AGL
Clouds: few clouds at 24000 feet AGL
Weather: no significant weather forecast for this period
Text: FM191700 VRB03KT P6SM SKC RMK NXT FCST BY 190600Z
Forecast period: 1700 UTC 19 March 2019 to 0000 UTC 20 March 2019
Forecast type: FROM: standard forecast or significant change
Winds: variable direction winds at 3 MPH (3 knots; 1.5 m/s)
Visibility: 6 or more miles 10+ km)
Clouds: clear skies
Weather: no significant weather forecast for this period